createdAt,value
2022-07-30T00:02:19.593Z,20417.50
2022-07-30T00:04:48.035Z,20389.03
2022-07-30T00:07:17.563Z,20435.78
2022-07-30T00:09:45.883Z,20342.28
2022-07-30T00:12:14.125Z,20348.38
2022-07-30T00:14:42.269Z,20340.25
2022-07-30T00:17:10.492Z,20346.34
2022-07-30T00:19:38.645Z,20328.06
2022-07-30T00:22:06.721Z,20295.53
2022-07-30T00:24:36.222Z,20291.47
2022-07-30T00:27:04.514Z,20291.47
2022-07-30T00:29:32.853Z,20315.88
2022-07-30T00:32:00.888Z,20277.25
2022-07-30T00:34:29.006Z,20271.16
2022-07-30T00:36:57.258Z,20273.19
2022-07-30T00:39:25.665Z,20246.75
2022-07-30T00:42:01.680Z,20309.75
2022-07-30T00:44:30.875Z,20332.13
2022-07-30T00:46:59.865Z,20315.88
2022-07-30T00:49:28.292Z,20250.81
2022-07-30T00:51:56.950Z,20303.66
2022-07-30T00:54:25.489Z,20299.59
2022-07-30T00:56:53.655Z,20277.25
2022-07-30T00:59:23.703Z,20248.78
2022-07-30T01:01:52.412Z,20212.19
2022-07-30T01:04:20.531Z,20208.13
2022-07-30T01:06:48.628Z,20216.25
2022-07-30T01:09:16.733Z,20191.88
2022-07-30T01:11:45.326Z,20204.06
2022-07-30T01:14:14.043Z,20193.91
2022-07-30T01:16:44.321Z,20224.41
2022-07-30T01:19:38.655Z,20193.91
2022-07-30T01:22:17.272Z,20187.81
2022-07-30T01:24:57.795Z,20130.91
2022-07-30T01:27:31.035Z,20124.81
2022-07-30T01:30:02.979Z,20175.63
2022-07-30T01:32:35.469Z,20183.75
2022-07-30T01:35:07.634Z,20159.34
2022-07-30T01:37:37.912Z,20134.97
2022-07-30T01:40:08.576Z,20173.59
2022-07-30T01:42:41.187Z,20128.88
2022-07-30T01:45:12.947Z,20134.97
2022-07-30T01:47:45.124Z,20134.97
2022-07-30T01:50:16.226Z,20110.56
2022-07-30T01:52:49.137Z,20086.19
2022-07-30T01:55:22.814Z,20086.19
2022-07-30T01:57:55.261Z,20092.28
2022-07-30T02:00:25.685Z,20094.31
2022-07-30T02:02:54.388Z,20094.31
2022-07-30T02:05:22.663Z,20057.72
2022-07-30T02:08:00.029Z,20055.69
2022-07-30T02:10:36.003Z,20041.47
2022-07-30T02:13:09.159Z,20049.59
2022-07-30T02:15:46.835Z,20045.53
2022-07-30T02:18:21.513Z,20049.59
2022-07-30T02:21:02.519Z,20008.94
2022-07-30T02:23:41.793Z,20061.78
2022-07-30T02:26:15.989Z,20080.09
2022-07-30T02:28:52.577Z,20039.44
2022-07-30T02:31:26.126Z,20015.03
2022-07-30T02:34:00.425Z,19994.72
2022-07-30T02:36:31.224Z,19960.16
2022-07-30T02:39:00.986Z,19911.41
2022-07-30T02:41:32.106Z,19887.00
2022-07-30T02:44:03.197Z,19848.38
2022-07-30T02:46:32.598Z,19830.09
2022-07-30T02:49:02.180Z,19765.06
2022-07-30T02:51:32.454Z,19769.13
2022-07-30T02:54:04.294Z,19726.44
2022-07-30T02:56:33.642Z,19724.41
2022-07-30T02:59:05.903Z,19687.84
2022-07-30T03:01:36.859Z,19675.63
2022-07-30T03:04:07.309Z,19669.53
2022-07-30T03:06:37.301Z,19600.44
2022-07-30T03:09:06.638Z,19567.94
2022-07-30T03:11:36.851Z,19484.59
2022-07-30T03:14:07.948Z,19452.09
2022-07-30T03:16:40.029Z,19385.03
2022-07-30T03:19:12.610Z,19311.88
2022-07-30T03:21:44.264Z,19257.00
2022-07-30T03:24:16.101Z,19228.56
2022-07-30T03:26:47.075Z,19167.59
2022-07-30T03:29:21.695Z,19110.72
2022-07-30T03:31:51.077Z,18840.47
2022-07-30T03:34:22.254Z,18832.34
2022-07-30T03:36:53.897Z,18767.31
2022-07-30T03:39:24.325Z,18761.22
2022-07-30T03:41:54.737Z,18738.88
2022-07-30T03:44:25.378Z,18728.72
2022-07-30T03:46:54.581Z,18679.94
2022-07-30T03:49:25.048Z,18698.22
2022-07-30T03:51:55.008Z,18655.56
2022-07-30T03:54:23.766Z,18602.75
2022-07-30T03:56:52.029Z,18588.53
2022-07-30T03:59:20.575Z,18562.09
2022-07-30T04:01:50.363Z,18535.69
2022-07-30T04:04:18.411Z,18505.22
2022-07-30T04:06:47.744Z,18509.28
2022-07-30T04:09:15.996Z,18493.03
2022-07-30T04:11:44.263Z,18535.69
2022-07-30T04:14:12.423Z,18499.13
2022-07-30T04:16:51.967Z,18513.34
2022-07-30T04:19:27.653Z,18529.59
2022-07-30T04:21:57.975Z,18511.31
2022-07-30T04:24:28.085Z,18521.47
2022-07-30T04:26:57.920Z,18480.84
2022-07-30T04:29:26.427Z,18513.34
2022-07-30T04:31:56.545Z,18511.31
2022-07-30T04:34:24.700Z,18470.69
2022-07-30T04:36:52.811Z,18478.81
2022-07-30T04:39:20.966Z,18476.78
2022-07-30T04:41:50.155Z,18446.31
2022-07-30T04:44:20.235Z,18438.19
2022-07-30T04:46:48.847Z,18434.13
2022-07-30T04:49:21.209Z,18417.84
2022-07-30T04:51:51.947Z,18403.63
2022-07-30T04:54:22.375Z,18397.53
2022-07-30T04:56:53.472Z,18391.44
2022-07-30T04:59:26.323Z,18363.00
2022-07-30T05:01:58.379Z,18448.34
2022-07-30T05:04:30.129Z,18407.69
2022-07-30T05:07:01.198Z,18448.34
2022-07-30T05:09:30.928Z,18381.28
2022-07-30T05:12:00.189Z,18452.41
2022-07-30T05:14:29.636Z,18452.41
2022-07-30T05:16:58.564Z,18450.38
2022-07-30T05:19:28.351Z,18488.97
2022-07-30T05:21:56.659Z,18484.91
2022-07-30T05:24:24.753Z,18428.03
2022-07-30T05:26:52.988Z,18462.56
2022-07-30T05:29:21.253Z,18472.72
2022-07-30T05:31:49.809Z,18478.81
2022-07-30T05:34:18.048Z,18484.91
2022-07-30T05:36:47.603Z,18423.94
2022-07-30T05:39:16.815Z,18430.06
2022-07-30T05:41:45.035Z,18468.66
2022-07-30T05:44:13.235Z,18423.94
2022-07-30T05:46:41.585Z,18387.38
2022-07-30T05:49:10.024Z,18436.16
2022-07-30T05:51:38.375Z,18454.44
2022-07-30T05:54:07.947Z,18513.34
2022-07-30T05:56:36.296Z,18493.03
2022-07-30T05:59:04.873Z,18529.59
2022-07-30T06:01:33.085Z,18588.53
2022-07-30T06:04:01.326Z,18694.16
2022-07-30T06:06:29.471Z,18744.97
2022-07-30T06:08:57.592Z,18911.56
2022-07-30T06:11:27.037Z,18958.31
2022-07-30T06:13:55.210Z,19092.41
2022-07-30T06:16:23.436Z,19161.50
2022-07-30T06:18:51.500Z,19147.28
2022-07-30T06:21:19.606Z,19129.00
2022-07-30T06:23:47.658Z,19068.03
2022-07-30T06:26:16.000Z,19070.06
2022-07-30T06:28:45.519Z,18994.88
2022-07-30T06:31:14.874Z,19031.47
2022-07-30T06:33:43.125Z,19106.66
2022-07-30T06:36:13.885Z,19171.66
2022-07-30T06:38:42.454Z,19183.84
2022-07-30T06:41:10.888Z,19159.47
2022-07-30T06:43:39.106Z,19277.34
2022-07-30T06:46:08.594Z,19358.63
2022-07-30T06:48:37.472Z,19405.34
2022-07-30T06:51:05.739Z,19452.09
2022-07-30T06:53:33.871Z,19391.13
2022-07-30T06:56:10.782Z,19356.59
2022-07-30T06:58:39.225Z,19443.97
2022-07-30T07:01:11.195Z,19427.72
2022-07-30T07:03:40.838Z,19423.66
2022-07-30T07:06:09.732Z,19389.09
2022-07-30T07:08:38.585Z,19391.13
2022-07-30T07:11:06.857Z,19415.50
2022-07-30T07:13:35.009Z,19466.31
2022-07-30T07:16:03.344Z,19494.78
2022-07-30T07:18:35.955Z,19565.91
2022-07-30T07:21:23.345Z,19454.13
2022-07-30T07:23:54.105Z,19500.88
2022-07-30T07:26:24.219Z,19425.69
2022-07-30T07:28:52.420Z,19557.78
2022-07-30T07:32:05.559Z,19506.97
2022-07-30T07:34:13.140Z,19474.44
2022-07-30T07:36:43.639Z,19490.72
2022-07-30T07:39:12.999Z,19466.31
2022-07-30T07:41:48.720Z,19452.09
2022-07-30T07:44:17.763Z,19378.94
2022-07-30T07:46:45.972Z,19352.53
2022-07-30T07:49:15.527Z,19332.19
2022-07-30T07:51:48.320Z,19322.03
2022-07-30T07:54:23.464Z,19283.44
2022-07-30T07:56:53.172Z,19259.03
2022-07-30T07:59:21.522Z,19246.84
2022-07-30T08:01:51.088Z,19242.78
2022-07-30T08:04:20.876Z,19340.31
2022-07-30T08:06:48.967Z,19342.34
2022-07-30T08:09:16.986Z,19232.63
2022-07-30T08:11:45.119Z,19106.66
2022-07-30T08:14:13.234Z,19057.88
2022-07-30T08:16:41.423Z,19108.69
2022-07-30T08:19:09.585Z,19102.56
2022-07-30T08:21:39.202Z,19112.75
2022-07-30T08:24:08.787Z,19114.78
2022-07-30T08:26:37.276Z,19131.03
2022-07-30T08:29:05.419Z,19053.81
2022-07-30T08:31:33.456Z,19059.91
2022-07-30T08:34:01.577Z,19074.13
2022-07-30T08:36:29.664Z,19147.28
2022-07-30T08:38:59.197Z,19157.44
2022-07-30T08:41:29.117Z,19124.94
2022-07-30T08:44:01.144Z,19120.88
2022-07-30T08:46:33.087Z,19074.13
2022-07-30T08:49:07.684Z,19086.31
2022-07-30T08:51:37.812Z,19122.91
2022-07-30T08:54:08.069Z,19155.41
2022-07-30T08:56:36.217Z,19309.84
2022-07-30T08:59:05.452Z,19263.09
2022-07-30T09:01:33.617Z,19344.41
2022-07-30T09:04:01.790Z,19313.91
2022-07-30T09:06:30.243Z,19242.78
2022-07-30T09:08:58.346Z,19210.28
2022-07-30T09:11:28.341Z,19208.25
2022-07-30T09:13:56.498Z,19151.34
2022-07-30T09:16:27.819Z,19104.59
2022-07-30T09:18:57.024Z,19000.97
2022-07-30T09:21:29.097Z,18954.25
2022-07-30T09:24:01.417Z,18964.41
2022-07-30T09:26:32.948Z,18968.47
2022-07-30T09:29:18.490Z,18919.69
2022-07-30T09:31:56.614Z,18887.19
2022-07-30T09:34:27.385Z,18887.19
2022-07-30T09:36:56.476Z,18840.47
2022-07-30T09:39:35.726Z,18840.47
2022-07-30T09:42:18.948Z,18785.59
2022-07-30T09:44:48.195Z,18742.94
2022-07-30T09:47:32.507Z,18797.78
2022-07-30T09:50:07.861Z,18858.75
2022-07-30T09:52:36.695Z,18899.38
2022-07-30T09:55:13.682Z,18895.31
2022-07-30T09:57:58.918Z,18970.50
2022-07-30T10:00:29.945Z,18954.25
2022-07-30T10:03:00.368Z,19053.81
2022-07-30T10:05:49.998Z,19116.81
2022-07-30T10:08:22.000Z,19254.97
2022-07-30T10:10:51.056Z,19257.00
2022-07-30T10:13:22.078Z,19287.50
2022-07-30T10:15:51.472Z,19330.16
2022-07-30T10:18:19.706Z,19366.75
2022-07-30T10:20:48.388Z,19354.56
2022-07-30T10:23:19.307Z,19297.66
2022-07-30T10:25:55.099Z,19275.31
2022-07-30T10:28:25.678Z,19185.88
2022-07-30T10:30:54.909Z,19177.75
2022-07-30T10:33:34.866Z,19222.47
2022-07-30T10:36:05.809Z,19181.81
2022-07-30T10:38:41.287Z,19163.53
2022-07-30T10:41:43.359Z,19155.41
2022-07-30T10:44:54.385Z,19218.41
2022-07-30T10:47:29.772Z,19196.06
2022-07-30T10:50:11.860Z,19076.16
2022-07-30T10:52:52.651Z,18980.66
2022-07-30T10:55:36.549Z,18990.81
2022-07-30T10:58:08.625Z,18978.63
2022-07-30T11:01:01.678Z,19098.50
2022-07-30T11:03:40.123Z,19005.03
2022-07-30T11:06:29.325Z,18944.09
2022-07-30T11:08:58.097Z,18885.16
2022-07-30T11:12:02.254Z,18826.25
2022-07-30T11:14:58.632Z,18881.09
2022-07-30T11:18:12.043Z,18972.53
2022-07-30T11:20:40.824Z,18968.47
2022-07-30T11:23:37.483Z,18935.97
2022-07-30T11:26:08.503Z,19074.13
2022-07-30T11:28:46.039Z,18994.88
2022-07-30T11:31:55.061Z,18980.66
2022-07-30T11:34:30.832Z,19047.72
2022-07-30T11:37:21.707Z,19047.72
2022-07-30T11:40:13.769Z,19043.66
2022-07-30T11:42:43.485Z,19078.19
2022-07-30T11:45:29.445Z,19137.13
2022-07-30T11:48:03.230Z,19385.03
2022-07-30T11:50:35.519Z,19376.91
2022-07-30T11:53:06.061Z,19506.97
2022-07-30T11:55:36.667Z,19626.88
2022-07-30T11:58:08.650Z,19602.47
2022-07-30T12:00:41.580Z,19718.31
2022-07-30T12:03:15.352Z,19730.50
2022-07-30T12:05:45.782Z,19765.06
2022-07-30T12:08:35.626Z,19891.06
2022-07-30T12:11:04.939Z,19832.13
2022-07-30T12:13:43.775Z,19903.25
2022-07-30T12:16:17.455Z,19899.19
2022-07-30T12:18:47.222Z,19897.16
2022-07-30T12:21:17.124Z,19943.91
2022-07-30T12:23:57.054Z,19960.16
2022-07-30T12:26:28.930Z,19897.16
2022-07-30T12:28:59.349Z,19903.25
2022-07-30T12:31:28.333Z,19950.00
2022-07-30T12:33:58.927Z,19952.03
2022-07-30T12:36:34.823Z,20027.25
2022-07-30T12:39:06.673Z,19960.16
2022-07-30T12:41:47.116Z,20035.38
2022-07-30T12:44:41.209Z,20053.66
2022-07-30T12:47:23.726Z,20041.47
2022-07-30T12:49:53.511Z,20104.47
2022-07-30T12:52:28.527Z,20244.72
2022-07-30T12:55:03.516Z,20151.22
2022-07-30T12:57:56.941Z,20218.31
2022-07-30T13:00:27.714Z,20195.94
2022-07-30T13:02:56.555Z,20214.22
2022-07-30T13:05:50.072Z,20295.53
2022-07-30T13:08:20.184Z,20273.19
2022-07-30T13:11:00.396Z,20370.75
2022-07-30T13:13:28.948Z,20317.91
2022-07-30T13:16:02.115Z,20352.44
2022-07-30T13:18:32.482Z,20321.97
2022-07-30T13:21:01.771Z,20338.22
2022-07-30T13:23:32.378Z,20326.03
2022-07-30T13:26:00.464Z,20283.34
2022-07-30T13:28:29.079Z,20285.38
2022-07-30T13:30:58.946Z,20293.50
2022-07-30T13:33:27.379Z,20311.78
2022-07-30T13:35:55.440Z,20265.03
2022-07-30T13:38:23.592Z,20200.00
2022-07-30T13:40:53.655Z,20250.81
2022-07-30T13:43:22.895Z,20236.59
2022-07-30T13:45:52.148Z,20167.47
2022-07-30T13:48:20.950Z,20145.13
2022-07-30T13:50:49.079Z,20208.13
2022-07-30T13:53:17.565Z,20252.84
2022-07-30T13:55:46.582Z,20309.75
2022-07-30T13:58:16.300Z,20301.63
2022-07-30T14:00:45.278Z,20246.75
2022-07-30T14:03:13.737Z,20250.81
2022-07-30T14:05:42.963Z,20195.94
2022-07-30T14:08:12.807Z,20151.22
2022-07-30T14:10:41.613Z,20076.03
2022-07-30T14:13:19.113Z,20004.88
2022-07-30T14:15:50.878Z,20071.97
2022-07-30T14:18:18.905Z,19994.72
2022-07-30T14:20:48.821Z,19931.72
2022-07-30T14:23:17.689Z,19911.41
2022-07-30T14:25:45.979Z,20000.81
2022-07-30T14:28:15.294Z,19996.75
2022-07-30T14:30:43.851Z,19931.72
2022-07-30T14:33:13.346Z,19882.94
2022-07-30T14:35:41.442Z,19801.66
2022-07-30T14:38:09.514Z,19813.84
2022-07-30T14:40:37.701Z,19801.66
2022-07-30T14:43:06.511Z,19787.41
2022-07-30T14:45:36.479Z,19856.53
2022-07-30T14:48:04.897Z,19836.19
2022-07-30T14:50:46.564Z,19795.53
2022-07-30T14:53:22.700Z,19824.00
2022-07-30T14:55:50.899Z,19838.22
2022-07-30T14:58:19.086Z,19901.22
2022-07-30T15:00:48.964Z,19897.16
2022-07-30T15:03:17.467Z,19915.47
2022-07-30T15:05:50.360Z,19972.38
2022-07-30T15:08:20.467Z,20065.84
2022-07-30T15:10:48.757Z,20025.22
2022-07-30T15:13:16.841Z,20053.66
2022-07-30T15:15:46.595Z,20002.84
2022-07-30T15:18:15.816Z,20177.66
2022-07-30T15:20:43.907Z,20128.88
2022-07-30T15:23:14.324Z,20061.78
2022-07-30T15:25:42.917Z,20094.31
2022-07-30T15:28:11.124Z,20086.19
2022-07-30T15:30:39.306Z,20183.75
2022-07-30T15:33:07.364Z,20218.31
2022-07-30T15:35:36.695Z,20330.09
2022-07-30T15:38:05.090Z,20441.88
2022-07-30T15:40:34.496Z,20492.72
2022-07-30T15:43:02.513Z,20494.75
2022-07-30T15:45:50.015Z,20695.97
2022-07-30T15:48:26.455Z,20702.09
2022-07-30T15:51:01.914Z,20679.72
2022-07-30T15:53:31.091Z,20712.25
2022-07-30T15:56:01.645Z,20671.59
2022-07-30T15:58:30.220Z,20689.88
2022-07-30T16:00:58.343Z,20622.81
2022-07-30T16:03:26.501Z,20781.38
2022-07-30T16:05:54.560Z,20769.16
2022-07-30T16:08:22.870Z,20761.03
2022-07-30T16:10:51.927Z,20797.63
2022-07-30T16:13:21.489Z,20815.91
2022-07-30T16:15:49.585Z,20799.66
2022-07-30T16:18:17.679Z,20740.69
2022-07-30T16:20:45.794Z,20734.59
2022-07-30T16:23:17.059Z,20681.75
2022-07-30T16:25:48.976Z,20685.81
2022-07-30T16:28:17.063Z,20641.09
2022-07-30T16:30:51.531Z,20622.81
2022-07-30T16:33:20.673Z,20643.13
2022-07-30T16:35:50.899Z,20614.66
2022-07-30T16:38:20.293Z,20659.38
2022-07-30T16:40:48.500Z,20602.47
2022-07-30T16:43:19.792Z,20700.03
2022-07-30T16:45:49.843Z,20681.75
2022-07-30T16:48:18.006Z,20594.34
2022-07-30T16:50:46.612Z,20588.25
2022-07-30T16:53:14.971Z,20586.22
2022-07-30T16:55:43.337Z,20645.16
2022-07-30T16:58:12.498Z,20645.16
2022-07-30T17:00:41.513Z,20661.44
2022-07-30T17:03:11.973Z,20647.19
2022-07-30T17:05:48.662Z,20671.59
2022-07-30T17:08:17.852Z,20685.81
2022-07-30T17:10:46.656Z,20622.81
2022-07-30T17:13:16.654Z,20685.81
2022-07-30T17:15:46.713Z,20659.38
2022-07-30T17:18:17.900Z,20639.06
2022-07-30T17:20:46.383Z,20582.16
2022-07-30T17:23:14.624Z,20555.72
2022-07-30T17:25:42.735Z,20608.56
2022-07-30T17:28:10.807Z,20626.88
2022-07-30T17:30:38.848Z,20571.97
2022-07-30T17:33:06.873Z,20508.97
2022-07-30T17:35:36.449Z,20557.75
2022-07-30T17:38:04.642Z,20488.63
2022-07-30T17:40:33.383Z,20496.78
2022-07-30T17:43:04.683Z,20571.97
2022-07-30T17:45:34.178Z,20482.53
2022-07-30T17:48:02.314Z,20435.78
2022-07-30T17:50:31.199Z,20415.47
2022-07-30T17:53:03.639Z,20376.84
2022-07-30T17:55:34.695Z,20443.91
2022-07-30T17:58:02.999Z,20409.38
2022-07-30T18:00:31.396Z,20362.63
2022-07-30T18:02:59.453Z,20344.31
2022-07-30T18:05:27.908Z,20295.53
2022-07-30T18:07:56.016Z,20244.72
2022-07-30T18:10:25.675Z,20244.72
2022-07-30T18:12:53.804Z,20179.69
2022-07-30T18:15:22.214Z,20165.44
2022-07-30T18:17:51.615Z,20163.41
2022-07-30T18:20:19.839Z,20100.41
2022-07-30T18:22:48.930Z,20151.22
2022-07-30T18:25:20.410Z,20134.97
2022-07-30T18:27:53.051Z,20110.56
2022-07-30T18:30:21.296Z,20041.47
2022-07-30T18:32:49.680Z,20010.97
2022-07-30T18:35:18.394Z,19943.91
2022-07-30T18:37:47.242Z,19935.78
2022-07-30T18:40:23.778Z,19919.53
2022-07-30T18:42:53.770Z,19858.56
2022-07-30T18:45:22.734Z,19834.16
2022-07-30T18:47:50.887Z,19785.38
2022-07-30T18:50:19.636Z,19785.38
2022-07-30T18:52:47.770Z,19716.28
2022-07-30T18:55:17.947Z,19687.84
2022-07-30T18:57:46.159Z,19626.88
2022-07-30T19:00:34.807Z,19610.59
2022-07-30T19:03:04.547Z,19580.13
2022-07-30T19:05:32.966Z,19533.38
2022-07-30T19:08:01.097Z,19539.47
2022-07-30T19:10:29.286Z,19506.97
2022-07-30T19:12:57.386Z,19470.38
2022-07-30T19:15:28.373Z,19435.84
2022-07-30T19:17:56.824Z,19391.13
2022-07-30T19:20:26.517Z,19441.94
2022-07-30T19:23:02.655Z,19397.22
2022-07-30T19:25:33.477Z,19397.22
2022-07-30T19:28:02.326Z,19376.91
2022-07-30T19:30:32.653Z,19376.91
2022-07-30T19:33:05.103Z,19301.72
2022-07-30T19:35:33.615Z,19297.66
2022-07-30T19:38:02.087Z,19301.72
2022-07-30T19:40:30.653Z,19267.16
2022-07-30T19:43:09.321Z,19246.84
2022-07-30T19:45:47.522Z,19244.81
2022-07-30T19:48:29.244Z,19216.38
2022-07-30T19:51:00.788Z,19222.47
2022-07-30T19:56:17.638Z,19206.22
2022-07-30T19:58:47.685Z,19194.03
2022-07-30T20:01:17.307Z,19167.59
2022-07-30T20:03:46.418Z,19120.88
2022-07-30T20:06:16.115Z,19135.09
2022-07-30T20:08:45.244Z,19098.50
2022-07-30T20:11:20.869Z,19078.19
2022-07-30T20:14:02.607Z,19043.66
2022-07-30T20:16:32.139Z,19047.72
2022-07-30T20:19:00.300Z,19019.28
2022-07-30T20:21:56.771Z,18931.91
2022-07-30T20:24:19.654Z,18946.13
2022-07-30T20:26:49.147Z,18911.56
2022-07-30T20:29:19.409Z,18903.44
2022-07-30T20:31:50.253Z,18868.91
2022-07-30T20:34:20.708Z,18818.09
2022-07-30T20:36:52.367Z,18783.56
2022-07-30T20:39:22.150Z,18783.56
2022-07-30T20:41:50.301Z,18736.84
2022-07-30T20:44:23.685Z,18716.53
2022-07-30T20:46:53.263Z,18757.16
2022-07-30T20:49:28.763Z,18769.34
2022-07-30T20:52:10.595Z,18740.91
2022-07-30T20:54:45.146Z,18751.06
2022-07-30T20:57:15.891Z,18769.34
2022-07-30T20:59:48.341Z,18809.97
2022-07-30T21:02:18.656Z,18753.09
2022-07-30T21:04:59.643Z,18749.03
2022-07-30T21:07:27.999Z,18704.31
2022-07-30T21:10:07.302Z,18653.53
2022-07-30T21:12:36.324Z,18602.75
2022-07-30T21:15:05.656Z,18582.44
2022-07-30T21:17:52.843Z,18562.09
2022-07-30T21:20:27.595Z,18517.41
2022-07-30T21:22:56.424Z,18501.16
2022-07-30T21:25:32.388Z,18493.03
2022-07-30T21:28:02.999Z,18442.25
2022-07-30T21:30:32.717Z,18425.97
2022-07-30T21:33:02.472Z,18401.59
2022-07-30T21:35:32.164Z,18352.84
2022-07-30T21:38:00.683Z,18379.25
2022-07-30T21:40:29.392Z,18391.44
2022-07-30T21:42:57.771Z,18320.34
2022-07-30T21:45:28.330Z,18318.31
2022-07-30T21:48:10.925Z,18308.16
2022-07-30T21:50:39.988Z,18300.03
2022-07-30T21:53:08.706Z,18283.78
2022-07-30T21:55:52.758Z,18259.41
2022-07-30T21:58:25.724Z,18263.47
2022-07-30T22:01:16.959Z,18261.44
2022-07-30T22:04:03.452Z,18204.53
2022-07-30T22:06:39.178Z,18237.06
2022-07-30T22:09:19.401Z,18239.09
2022-07-30T22:12:00.717Z,18237.06
2022-07-30T22:14:29.959Z,18172.03
2022-07-30T22:17:00.362Z,18198.44
2022-07-30T22:19:30.024Z,18204.53
2022-07-30T22:21:58.166Z,18174.06
2022-07-30T22:24:31.375Z,18180.16
2022-07-30T22:27:02.075Z,18176.09
2022-07-30T22:29:42.543Z,18145.63
2022-07-30T22:32:11.735Z,18115.16
2022-07-30T22:34:41.357Z,18102.97
2022-07-30T22:37:12.722Z,18127.34
2022-07-30T22:39:50.292Z,18139.53
2022-07-30T22:42:20.044Z,18147.66
2022-07-30T22:44:48.336Z,18149.69
2022-07-30T22:47:21.036Z,18135.47
2022-07-30T22:49:54.874Z,18129.38
2022-07-30T22:52:44.368Z,18151.72
2022-07-30T22:55:28.121Z,18165.94
2022-07-30T22:57:58.348Z,18149.69
2022-07-30T23:00:27.299Z,18135.47
2022-07-30T23:02:57.279Z,18113.13
2022-07-30T23:05:26.929Z,18133.44
2022-07-30T23:07:55.341Z,18119.22
2022-07-30T23:10:24.865Z,18113.13
2022-07-30T23:12:17.769Z,19218.41
2022-07-30T23:12:54.008Z,18141.56
2022-07-30T23:15:23.523Z,18088.75
2022-07-30T23:17:51.565Z,18096.88
2022-07-30T23:20:21.380Z,18086.72
2022-07-30T23:22:51.575Z,18090.78
2022-07-30T23:25:19.774Z,18088.75
2022-07-30T23:27:47.963Z,18066.41
2022-07-30T23:30:16.093Z,18113.13
2022-07-30T23:32:44.232Z,18084.69
2022-07-30T23:35:12.341Z,18080.63
2022-07-30T23:37:49.051Z,18078.59
2022-07-30T23:40:19.589Z,18074.53
2022-07-30T23:42:50.099Z,18080.63
2022-07-30T23:45:18.817Z,18088.75
2022-07-30T23:48:01.994Z,18074.53
2022-07-30T23:50:32.659Z,18092.81
2022-07-30T23:53:00.912Z,18096.88
2022-07-30T23:55:31.870Z,18082.66
2022-07-30T23:58:00.459Z,18115.16
